KEGEKGJT

Guest
Details From KEGE - EAGLE CO RGNL
To KGJT - WALKER FLD
Flight Number -
Tags generated
Created
Modified
Stats Distance 81 nm / 150 km
Max Altitude 1,200 ft / 366 m
Waypoints 3
Social Downloads 1
Likes 0
Share VATSIM

Download

Looking for another format? Having issues loading an existing format? Contact us
Advertisement - Login to hide

Notes

Basic altitude profile: - Ascent Rate: 2500ft/min - Ascent Speed: 250kts - Cruise Altitude: 35000ft - Cruise Speed: 420kts - Descent Rate: 1500ft/min - Descent Speed: 250kts Options: - Use NATs: yes - Use PACOTS: yes - Use low airways: yes - Use high airways: yes

Route

KEGE SXW KGJT

ID Type Via Altitude Latitude Longitude Leg Dist Tot Dist Heading (true) Name
O KEGE APT - 0 ft / 0 m 39.64257˚ -106.91770˚ - 0 nm - EAGLE CO RGNL
SXW VOR - 1,200 ft / 366 m 39.62947˚ -106.99117˚ 3 nm 3 nm 257° / 257° SNOW VOR-DME
O KGJT APT - 0 ft / 0 m 39.12048˚ -108.52561˚ 77 nm 81 nm 247° / 246° WALKER FLD

Altitude Profile

Advertisement - Login to hide

KEGE

Details ICAO KEGE (EGE)
Name EAGLE CO RGNL
Region United States
Timezone America/Denver (UTC-7.0)
Stats Elevation 6,540 ft / 1,993 m (AMSL)
Location 39.642567° -106.917696°
Runways 1
Magnetic Variation 9.166° E

METAR

KEGE 122156Z 00000KT 10SM CLR 06/M09 A3044 RMK AO2 SLP358 T00561094

Decode

TAF

KEGE 121721Z 1218/1318 VRB03KT P6SM SKC

Decode

Departure Runways

ID Width Length Bearing (true) Bearing (mag) Surface Threshold Offset Overrun Length
07 150 ft / 46 m 7,981 ft / 2,433 m 81.90° 72.73° Asphalt 0 ft / 0 m 0 ft / 0 m
25 150 ft / 46 m 7,981 ft / 2,433 m 261.92° 252.75° Asphalt 0 ft / 0 m 0 ft / 0 m

KGJT

Details ICAO KGJT (GJT)
Name WALKER FLD
Region United States
Timezone America/Denver (UTC-7.0)
Stats Elevation 4,858 ft / 1,481 m (AMSL)
Location 39.120479° -108.525609°
Runways 2
Magnetic Variation 9.833° E

METAR

KGJT 122153Z 28003KT 10SM CLR 12/M11 A3037 RMK AO2 SLP280 T01171106 $

Decode

TAF

KGJT 121721Z 1218/1318 14006KT P6SM SKC FM122000 32004KT P6SM SKC FM130300 VRB03KT P6SM SKC

Decode

Destination Runways

ID Width Length Bearing (true) Bearing (mag) Surface Threshold Offset Overrun Length
04 75 ft / 23 m 5,495 ft / 1,675 m 54.33° 44.50° Asphalt 0 ft / 0 m 0 ft / 0 m
11 151 ft / 46 m 10,490 ft / 3,197 m 125.28° 115.45° Asphalt 0 ft / 0 m 98 ft / 30 m
22 75 ft / 23 m 5,495 ft / 1,675 m 234.34° 224.51° Asphalt 0 ft / 0 m 0 ft / 0 m
29 151 ft / 46 m 10,490 ft / 3,197 m 305.30° 295.47° Asphalt 0 ft / 0 m 98 ft / 30 m

Approach Navaids

Runway Type Ident Frequency Range Bearing (true) Bearing (mag) Slope Elevation
11 Localiser IGJT 110.30 MHz 18 nm / 33 km 125.31° 115.47° - 4,854 ft / 1,479 m (AMSL)
11 Glidescope IGJT 110.30 MHz 10 nm / 19 km 125.29° 115.46° 2.75° 4,824 ft / 1,470 m (AMSL)
11 DME IGJT 110.30 MHz 18 nm / 33 km - - - 4,820 ft / 1,469 m (AMSL)
29 Localiser IACD 109.70 MHz 18 nm / 33 km 323.20° 313.37° - 4,858 ft / 1,481 m (AMSL)
29 DME IACD 109.70 MHz 18 nm / 33 km - - - 4,858 ft / 1,481 m (AMSL)